Nearby METAR Reports

 

KPAO - Palo Alto, California, USA
Distance from KPAO: NNW 0nm, 0mi
Updated: Sun, 27-Sep-2020 9:47am PDT
Sky Clear
Sky Clear
 Wind from varies
Wind: varies 5 mph , 7 km/h
Temperature: 79°F , 26°C
Dew Point: 57°F , 14°C
Humidity: 48%
Barometer: 29.93 inHg , 1013.5 hPa
Clouds: Sky Clear
Visibility: 10 miles , 16 km
2020/09/27 16:47 KPAO 271647Z VRB04KT 10SM SKC 26/14 A2993
KSQL - San Carlos Airpo, California, USA
Distance from KPAO: WNW 7nm, 8mi
Updated: Sun, 27-Sep-2020 9:47am PDT
Sky Clear
Sky Clear
 Wind from ESE
Wind: ESE 10 mph , 17 km/h
Temperature: 77°F , 25°C
Dew Point: 48°F , 9°C
Humidity: 36%
Barometer: 29.93 inHg , 1013.5 hPa
Clouds: Sky Clear
Visibility: 10 miles , 16 km
2020/09/27 16:47 KSQL 271647Z 12009KT 10SM SKC 25/09 A2993
 
KSJC - San Jose, California, USA
Distance from KPAO: ESE 11nm, 13mi
Updated: Sun, 27-Sep-2020 9:53am PDT
Scattered
Scattered
 Wind from W
Wind: W 6 mph , 9 km/h
Temperature: 75°F , 24°C
Dew Point: 54°F , 12°C
Humidity: 47%
Barometer: 29.92 inHg , 1013.2 hPa
Clouds: Scattered
Visibility: 10 miles , 16 km
Cloud details: Scattered 5000 ft
Scattered 8000 ft
Scattered 13000 ft
2020/09/27 16:53 KSJC 271653Z 27005KT 10SM SCT050 SCT080 SCT130 24/12 A2992 RMK AO2 SLP132 HZ SCT050 T02440117
KHWD - Hayward, California, USA
Distance from KPAO: N 12nm, 14mi
Updated: Sun, 27-Sep-2020 9:54am PDT
Clear
Clear
 Wind from W
Wind: W 5 mph , 7 km/h
Temperature: 75°F , 24°C
Dew Point: 57°F , 14°C
Humidity: 54%
Barometer: 29.93 inHg , 1013.5 hPa
Clouds: Clear
Visibility: 10 miles , 16 km
2020/09/27 16:54 KHWD 271654Z 28004KT 10SM CLR 24/14 A2993 RMK AO2 SLP142 T02390139
 
KSFO - San Francisco, California, USA
Distance from KPAO: NW 16nm, 18mi
Updated: Sun, 27-Sep-2020 9:56am PDT
Few Clouds
Few Clouds
 Wind from NE
Wind: NE 3 mph , 6 km/h
Temperature: 72°F , 22°C
Dew Point: 59°F , 15°C
Humidity: 65%
Barometer: 29.92 inHg , 1013.2 hPa
Clouds: Few Clouds
Visibility: 10 miles , 16 km
Cloud details: Few Clouds 20000 ft
2020/09/27 16:56 KSFO 271656Z 05003KT 10SM FEW200 22/15 A2992 RMK AO2 SLP132 T02170150
KRHV - San Jose/Reid, California, USA
Distance from KPAO: ESE 16nm, 18mi
Updated: Sun, 27-Sep-2020 9:59am PDT
Sky Clear
Sky Clear
 Wind from calm
Wind: Calm
Temperature: 75°F , 24°C
Dew Point: 55°F , 13°C
Humidity: 50%
Barometer: 29.93 inHg , 1013.5 hPa
Clouds: Sky Clear
Visibility: 10 miles , 16 km
2020/09/27 16:59 KRHV 271659Z 00000KT 10SM SKC 24/13 A2993
 
KOAK - Oakland, California, USA
Distance from KPAO: NNW 16nm, 18mi
Updated: Sun, 27-Sep-2020 9:53am PDT
Few Clouds
Few Clouds
 Wind from calm
Wind: Calm
Temperature: 75°F , 24°C
Dew Point: 61°F , 16°C
Humidity: 61%
Barometer: 29.93 inHg , 1013.5 hPa
Clouds: Few Clouds
Visibility: 10 miles , 16 km
Cloud details: Few Clouds 25000 ft
2020/09/27 16:53 KOAK 271653Z 00000KT 10SM FEW250 24/16 A2993 RMK AO2 SLP136 T02390156
KHAF - Half Moon Bay, California, USA
Distance from KPAO: W 19nm, 22mi
Updated: Sun, 27-Sep-2020 10:15am PDT
Haze, Clear
Haze, Clear
 Wind from SSE
Wind: SSE 5 mph , 7 km/h
Temperature: 64°F , 18°C
Dew Point: 55°F , 13°C
Humidity: 73%
Barometer: 29.94 inHg , 1013.9 hPa
Summary: Haze
Clouds: Clear
Visibility: 3 miles , 5 km
2020/09/27 17:15 KHAF 271715Z AUTO 16004KT 3SM HZ CLR 18/13 A2994 RMK AO2
 
KLVK - Livermore, California, USA
Distance from KPAO: NE 20nm, 23mi
Updated: Sun, 27-Sep-2020 9:53am PDT
Clear
Clear
 Wind from ENE
Wind: ENE 10 mph , 17 km/h
Temperature: 81°F , 27°C
Dew Point: 41°F , 5°C
Humidity: 24%
Barometer: 29.93 inHg , 1013.5 hPa
Clouds: Clear
Visibility: 10 miles , 16 km
2020/09/27 16:53 KLVK 271653Z 07009KT 10SM CLR 27/05 A2993 RMK AO2 SLP131 T02720050
KC83 - Byron, California, USA
Distance from KPAO: NE 32nm, 40mi
Updated: Sun, 27-Sep-2020 10:15am PDT
Clear
Clear
 Wind from NNW
Wind: NNW 12 mph , 19 km/h, Gust: 20 mph , 31 km/h
Temperature: 79°F , 26°C
Dew Point: 46°F , 8°C
Humidity: 32%
Barometer: 29.94 inHg , 1013.9 hPa
Clouds: Clear
Visibility: 9 miles , 14 km
2020/09/27 17:15 KC83 271715Z AUTO 34010G17KT 9SM CLR 26/08 A2994 RMK AO2
 
KCCR - Concord, California, USA
Distance from KPAO: N 33nm, 37mi
Updated: Sun, 27-Sep-2020 9:53am PDT
Clear
Clear
 Wind from E
Wind: E 7 mph , 11 km/h
Temperature: 82°F , 28°C
Dew Point: 46°F , 8°C
Humidity: 28%
Barometer: 29.92 inHg , 1013.2 hPa
Clouds: Clear
Visibility: 10 miles , 16 km
2020/09/27 16:53 KCCR 271653Z 08006KT 10SM CLR 28/08 A2992 RMK AO2 SLP119 T02780078
KWVI - Watsonville, California, USA
Distance from KPAO: SSE 35nm, 40mi
Updated: Sun, 27-Sep-2020 9:53am PDT
Clear
Clear
 Wind from S
Wind: S 3 mph , 6 km/h
Temperature: 73°F , 23°C
Dew Point: 57°F , 14°C
Humidity: 57%
Barometer: 29.92 inHg , 1013.2 hPa
Clouds: Clear
Visibility: 10 miles , 16 km
2020/09/27 16:53 KWVI 271653Z AUTO 17003KT 10SM CLR 23/14 A2992 RMK AO2 SLP129 T02330144
 
KAPC - Napa, California, USA
Distance from KPAO: N 46nm, 53mi
Updated: Sun, 27-Sep-2020 9:54am PDT
Clear
Clear
 Wind from SSW
Wind: SSW 9 mph , 15 km/h
Temperature: 73°F , 23°C
Dew Point: 61°F , 16°C
Humidity: 65%
Barometer: 29.92 inHg , 1013.2 hPa
Clouds: Clear
Visibility: 10 miles , 16 km
2020/09/27 16:54 KAPC 271654Z 21008KT 10SM CLR 23/16 A2992 RMK AO2 SLP124 T02330161
KDVO - Novato/Gnoss Fld, California, USA
Distance from KPAO: NNW 46nm, 53mi
Updated: Sun, 27-Sep-2020 10:15am PDT
Clear
Clear
 Wind from calm
Wind: Calm
Temperature: 79°F , 26°C
Dew Point: 55°F , 13°C
Humidity: 45%
Barometer: 29.92 inHg , 1013.2 hPa
Clouds: Clear
Visibility: 10 miles , 16 km
2020/09/27 17:15 KDVO 271715Z AUTO 00000KT 10SM CLR 26/13 A2992 RMK AO2
 
KCVH - Hollister Muni, California, USA
Distance from KPAO: SE 48nm, 55mi
Updated: Fri, 25-Sep-2020 11:35am PDT
NOT Current
Clear
Clear
 Wind from calm
Wind: Calm
Temperature: 72°F , 22°C
Dew Point: 50°F , 10°C
Humidity: 47%
Barometer: 30.06 inHg , 1017.9 hPa
Clouds: Clear
Visibility: 9 miles , 14 km
2020/09/25 18:35 KCVH 251835Z AUTO 00000KT 9SM CLR 22/10 A3006 RMK A01
KSUU - Travis Afb/Fairf, California, USA
Distance from KPAO: ENE 49nm, 56mi
Updated: Sun, 27-Sep-2020 9:58am PDT
Clear
Clear
 Wind from N
Wind: N 22 mph , 35 km/h, Gust: 28 mph , 44 km/h
Temperature: 82°F , 28°C
Dew Point: 41°F , 5°C
Humidity: 23%
Barometer: 29.90 inHg , 1012.5 hPa
Clouds: Clear
Visibility: 10 miles , 16 km
2020/09/27 16:58 KSUU 271658Z AUTO 01019G24KT 10SM CLR 28/05 A2990 RMK AO2 PK WND 35032/48 SLP131 T02790054 $
 
KSCK - Stockton, California, USA
Distance from KPAO: ENE 49nm, 56mi
Updated: Sun, 27-Sep-2020 9:55am PDT
Clear
Clear
 Wind from NW
Wind: NW 8 mph , 13 km/h
Temperature: 77°F , 25°C
Dew Point: 48°F , 9°C
Humidity: 36%
Barometer: 29.92 inHg , 1013.2 hPa
Clouds: Clear
Visibility: 10 miles , 16 km
2020/09/27 16:55 KSCK 271655Z 31007KT 10SM CLR 25/09 A2992 RMK AO2 SLP131 T02500089
KO69 - Petaluma, California, USA
Distance from KPAO: W 53nm, 61mi
Updated: Sun, 27-Sep-2020 10:15am PDT
Clear
Clear
 Wind from calm
Wind: Calm
Temperature: 73°F , 23°C
Dew Point: 55°F , 13°C
Humidity: 53%
Barometer: 29.94 inHg , 1013.9 hPa
Clouds: Clear
Visibility: 10 miles , 16 km
2020/09/27 17:15 KO69 271715Z AUTO 00000KT 10SM CLR 23/13 A2994 RMK A01
 
KSNS - Salinas, California, USA
Distance from KPAO: SSE 54nm, 62mi
Updated: Sun, 27-Sep-2020 9:53am PDT
Clear
Clear
 Wind from ESE
Wind: ESE 6 mph , 9 km/h
Temperature: 72°F , 22°C
Dew Point: 55°F , 13°C
Humidity: 57%
Barometer: 29.91 inHg , 1012.9 hPa
Clouds: Clear
Visibility: 10 miles , 16 km
2020/09/27 16:53 KSNS 271653Z 12005KT 10SM CLR 22/13 A2991 RMK AO2 SLP138 T02220133
KMRY - Monterey, California, USA
Distance from KPAO: SSE 54nm, 62mi
Updated: Sun, 27-Sep-2020 9:54am PDT
Clear
Clear
 Wind from NW
Wind: NW 5 mph , 7 km/h
Barometer: 29.92 inHg , 1013.2 hPa
Clouds: Clear
Visibility: 8 miles , 13 km
2020/09/27 16:54 KMRY 271654Z 31004KT 8SM CLR A2992 RMK AO2 SLPNO $
 
KVCB - Vacaville, California, USA
Distance from KPAO: NE 55nm, 63mi
Updated: Sun, 27-Sep-2020 9:53am PDT
Clear
Clear
 Wind from N
Wind: N 22 mph , 35 km/h, Gust: 33 mph , 54 km/h
Temperature: 82°F , 28°C
Dew Point: 39°F , 4°C
Humidity: 21%
Barometer: 29.93 inHg , 1013.5 hPa
Clouds: Clear
Visibility: 10 miles , 16 km
2020/09/27 16:53 KVCB 271653Z AUTO 01019G29KT 10SM CLR 28/04 A2993 RMK AO2 PK WND 36029/1651 SLP134 T02830044
KMOD - Modesto, California, USA
Distance from KPAO: E 56nm, 64mi
Updated: Sun, 27-Sep-2020 9:53am PDT
Clear
Clear
 Wind from NW
Wind: NW 13 mph , 20 km/h
Temperature: 75°F , 24°C
Dew Point: 48°F , 9°C
Humidity: 39%
Barometer: 29.92 inHg , 1013.2 hPa
Clouds: Clear
Visibility: 10 miles , 16 km
2020/09/27 16:53 KMOD 271653Z 32011KT 10SM CLR 24/09 A2992 RMK AO2 SLP129 T02440089
 
KEDU - Davis, California, USA
Distance from KPAO: NE 66nm, 76mi
Updated: Sun, 27-Sep-2020 10:20am PDT
Clear
Clear
 Wind from N
Wind: N 22 mph , 35 km/h, Gust: 28 mph , 44 km/h
Temperature: 81°F , 27°C
Dew Point: 43°F , 6°C
Humidity: 26%
Barometer: 29.93 inHg , 1013.5 hPa
Clouds: Clear
Visibility: 8 miles , 13 km
2020/09/27 17:20 KEDU 271720Z AUTO 01019G24KT 8SM CLR 27/06 A2993 RMK AO1
KSAC - Sacramento, California, USA
Distance from KPAO: NE 70nm, 81mi
Updated: Sun, 27-Sep-2020 9:53am PDT
Clear
Clear
 Wind from NNW
Wind: NNW 10 mph , 17 km/h
Temperature: 75°F , 24°C
Dew Point: 46°F , 8°C
Humidity: 36%
Barometer: 29.93 inHg , 1013.5 hPa
Clouds: Clear
Visibility: 10 miles , 16 km
2020/09/27 16:53 KSAC 271653Z 34009KT 10SM CLR 24/08 A2993 RMK AO2 SLP133 T02440078
 
KSTS - Santa Rosa, California, USA
Distance from KPAO: NW 71nm, 82mi
Updated: Sun, 27-Sep-2020 9:53am PDT
Haze, Smoke, Clear
Haze, Smoke, Clear
 Wind from varies
Wind: varies 5 mph , 7 km/h
Temperature: 75°F , 24°C
Dew Point: 54°F , 12°C
Humidity: 47%
Barometer: 29.92 inHg , 1013.2 hPa
Summary: Haze, Smoke
Clouds: Clear
Visibility: 6 miles , 10 km
2020/09/27 16:53 KSTS 271653Z VRB04KT 6SM HZ FU CLR 24/12 A2992 RMK AO2 SLP125 T02440122
KMHR - Mather Field, California, USA
Distance from KPAO: ENE 76nm, 88mi
Updated: Sun, 27-Sep-2020 9:51am PDT
Sky Clear
Sky Clear
 Wind from N
Wind: N 7 mph , 11 km/h
Temperature: 75°F , 24°C
Dew Point: 45°F , 7°C
Humidity: 34%
Barometer: 29.91 inHg , 1012.9 hPa
Clouds: Sky Clear
Visibility: 10 miles , 16 km
2020/09/27 16:51 KMHR 271651Z 01006KT 10SM SKC 24/07 A2991
 
KSMF - Sacramento/Metro, California, USA
Distance from KPAO: NE 78nm, 90mi
Updated: Sun, 27-Sep-2020 9:53am PDT
Clear
Clear
 Wind from NE
Wind: NE 6 mph , 9 km/h
Temperature: 75°F , 24°C
Dew Point: 50°F , 10°C
Humidity: 41%
Barometer: 29.93 inHg , 1013.5 hPa
Clouds: Clear
Visibility: 10 miles , 16 km
2020/09/27 16:53 KSMF 271653Z 04005KT 10SM CLR 24/10 A2993 RMK AO2 SLP133 T02440100
KMCC - Mcclellan Afb, California, USA
Distance from KPAO: NE 80nm, 92mi
Updated: Sun, 27-Sep-2020 10:15am PDT
Clear
Clear
 Wind from N
Wind: N 14 mph , 22 km/h
Temperature: 77°F , 25°C
Dew Point: 46°F , 8°C
Humidity: 34%
Barometer: 29.93 inHg , 1013.5 hPa
Clouds: Clear
Visibility: 10 miles , 16 km
2020/09/27 17:15 KMCC 271715Z AUTO 35012KT 10SM CLR 25/08 A2993 RMK AO2
 
KNKX - Miramar MCAS (Joe Foss Field) Airport, California, USA
Distance from KPAO: SE 368nm, 423mi
Updated: Sun, 27-Sep-2020 9:55am PDT
Scattered
Scattered
 Wind from NW
Wind: NW 6 mph , 9 km/h
Temperature: 70°F , 21°C
Dew Point: 63°F , 17°C
Humidity: 78%
Barometer: 29.91 inHg , 1012.9 hPa
Clouds: Scattered
Visibility: 9 miles , 14 km
Cloud details: Scattered 1300 ft
2020/09/27 16:55 KNKX 271655Z 32005KT 9SM SCT013 21/17 A2991 RMK AO2 SLP122 T02110167 $
KMYF - Montgomery-Gibbs Executive Airport, California, USA
Distance from KPAO: SE 371nm, 427mi
Updated: Sun, 27-Sep-2020 9:53am PDT
Scattered
Scattered
 Wind from calm
Wind: Calm
Temperature: 72°F , 22°C
Dew Point: 61°F , 16°C
Humidity: 69%
Barometer: 29.91 inHg , 1012.9 hPa
Clouds: Scattered
Visibility: 8 miles , 13 km
Cloud details: Scattered 1400 ft
2020/09/27 16:53 KMYF 271653Z 00000KT 8SM SCT014 22/16 A2991 RMK AO2 SLP124 T02220156